createdAt,value
2023-02-19T00:01:45.671Z,100.00
2023-02-19T00:04:17.823Z,100.00
2023-02-19T00:06:45.687Z,100.00
2023-02-19T00:09:13.753Z,100.00
2023-02-19T00:11:40.911Z,100.00
2023-02-19T00:14:08.301Z,100.00
2023-02-19T00:16:39.815Z,100.00
2023-02-19T00:19:10.769Z,100.00
2023-02-19T00:21:37.277Z,100.00
2023-02-19T00:24:05.890Z,100.00
2023-02-19T00:26:32.966Z,100.00
2023-02-19T00:29:00.999Z,100.00
2023-02-19T00:31:32.508Z,100.00
2023-02-19T00:34:04.111Z,100.00
2023-02-19T00:36:32.564Z,100.00
2023-02-19T00:38:59.040Z,100.00
2023-02-19T00:41:25.985Z,100.00
2023-02-19T00:44:03.902Z,100.00
2023-02-19T00:46:32.110Z,100.00
2023-02-19T00:48:59.285Z,100.00
2023-02-19T00:51:28.383Z,100.00
2023-02-19T00:53:55.428Z,100.00
2023-02-19T00:56:22.447Z,100.00
2023-02-19T00:58:49.822Z,100.00
2023-02-19T01:01:17.233Z,100.00
2023-02-19T01:03:44.758Z,100.00
2023-02-19T01:06:13.412Z,100.00
2023-02-19T01:08:40.080Z,100.00
2023-02-19T01:11:08.537Z,100.00
2023-02-19T01:13:35.979Z,100.00
2023-02-19T01:16:18.287Z,100.00
2023-02-19T01:18:45.504Z,100.00
2023-02-19T01:21:20.609Z,100.00
2023-02-19T01:23:47.736Z,100.00
2023-02-19T01:26:17.489Z,100.00
2023-02-19T01:28:45.733Z,100.00
2023-02-19T01:31:17.045Z,100.00
2023-02-19T01:33:50.224Z,100.00
2023-02-19T01:36:17.063Z,100.00
2023-02-19T01:38:44.285Z,100.00
2023-02-19T01:41:14.895Z,100.00
2023-02-19T01:44:08.096Z,100.00
2023-02-19T01:46:40.191Z,100.00
2023-02-19T01:49:18.563Z,100.00
2023-02-19T01:51:50.666Z,100.00
2023-02-19T01:54:22.692Z,100.00
2023-02-19T01:56:49.943Z,100.00
2023-02-19T01:59:18.394Z,100.00
2023-02-19T02:01:45.016Z,100.00
2023-02-19T02:04:14.318Z,100.00
2023-02-19T02:06:50.035Z,100.00
2023-02-19T02:09:37.946Z,100.00
2023-02-19T02:12:04.813Z,100.00
2023-02-19T02:14:35.815Z,100.00
2023-02-19T02:17:26.797Z,100.00
2023-02-19T02:20:15.215Z,100.00
2023-02-19T02:22:54.841Z,100.00
2023-02-19T02:25:56.189Z,100.00
2023-02-19T02:28:56.542Z,100.00
2023-02-19T02:31:35.441Z,100.00
2023-02-19T02:34:14.554Z,100.00
2023-02-19T02:36:46.018Z,100.00
2023-02-19T02:39:18.802Z,100.00
2023-02-19T02:42:14.122Z,100.00
2023-02-19T02:45:04.087Z,100.00
2023-02-19T02:47:42.069Z,100.00
2023-02-19T02:50:18.992Z,100.00
2023-02-19T02:53:08.144Z,100.00
2023-02-19T02:55:41.192Z,100.00
2023-02-19T02:58:10.214Z,100.00
2023-02-19T03:00:58.286Z,100.00
2023-02-19T03:03:28.461Z,100.00
2023-02-19T03:06:02.792Z,100.00
2023-02-19T03:08:35.673Z,100.00
2023-02-19T03:11:24.449Z,100.00
2023-02-19T03:14:15.542Z,100.00
2023-02-19T03:17:04.203Z,100.00
2023-02-19T03:19:35.263Z,100.00
2023-02-19T03:22:11.572Z,100.00
2023-02-19T03:25:01.577Z,100.00
2023-02-19T03:27:32.331Z,100.00
2023-02-19T03:30:05.515Z,100.00
2023-02-19T03:32:45.596Z,100.00
2023-02-19T03:35:27.370Z,100.00
2023-02-19T03:38:04.658Z,100.00
2023-02-19T03:40:48.057Z,100.00
2023-02-19T03:43:21.156Z,100.00
2023-02-19T03:46:02.088Z,100.00
2023-02-19T03:48:36.878Z,100.00
2023-02-19T03:51:22.870Z,100.00
2023-02-19T03:54:06.809Z,100.00
2023-02-19T03:56:36.722Z,100.00
2023-02-19T03:59:13.303Z,100.00
2023-02-19T04:01:58.330Z,100.00
2023-02-19T04:04:29.521Z,100.00
2023-02-19T04:06:57.369Z,100.00
2023-02-19T04:09:42.270Z,100.00
2023-02-19T04:12:14.923Z,100.00
2023-02-19T04:15:02.279Z,100.00
2023-02-19T04:17:44.002Z,100.00
2023-02-19T04:20:12.121Z,100.00
2023-02-19T04:22:40.504Z,100.00
2023-02-19T04:25:07.822Z,100.00
2023-02-19T04:27:38.547Z,100.00
2023-02-19T04:30:09.235Z,100.00
2023-02-19T04:32:35.847Z,100.00
2023-02-19T04:35:03.158Z,100.00
2023-02-19T04:37:29.721Z,100.00
2023-02-19T04:39:56.620Z,100.00
2023-02-19T04:42:23.945Z,100.00
2023-02-19T04:44:50.838Z,100.00
2023-02-19T04:47:20.140Z,100.00
2023-02-19T04:49:46.648Z,100.00
2023-02-19T04:52:13.468Z,100.00
2023-02-19T04:54:40.083Z,100.00
2023-02-19T04:57:06.638Z,100.00
2023-02-19T04:59:33.268Z,100.00
2023-02-19T05:01:59.674Z,100.00
2023-02-19T05:04:26.289Z,100.00
2023-02-19T05:06:52.861Z,100.00
2023-02-19T05:09:19.422Z,100.00
2023-02-19T05:11:45.901Z,100.00
2023-02-19T05:14:12.290Z,100.00
2023-02-19T05:16:39.269Z,100.00
2023-02-19T05:19:05.672Z,100.00
2023-02-19T05:21:32.112Z,100.00
2023-02-19T05:23:58.582Z,100.00
2023-02-19T05:26:25.290Z,100.00
2023-02-19T05:28:53.144Z,100.00
2023-02-19T05:31:20.494Z,100.00
2023-02-19T05:33:50.876Z,100.00
2023-02-19T05:36:19.043Z,100.00
2023-02-19T05:38:45.472Z,100.00
2023-02-19T05:41:14.678Z,100.00
2023-02-19T05:43:42.349Z,100.00
2023-02-19T05:46:12.294Z,100.00
2023-02-19T05:48:38.980Z,100.00
2023-02-19T05:51:10.617Z,100.00
2023-02-19T05:53:37.947Z,100.00
2023-02-19T05:56:04.886Z,100.00
2023-02-19T05:58:31.314Z,100.00
2023-02-19T06:00:57.764Z,100.00
2023-02-19T06:03:24.244Z,100.00
2023-02-19T06:05:50.951Z,100.00
2023-02-19T06:08:17.381Z,100.00
2023-02-19T06:10:44.155Z,100.00
2023-02-19T06:13:10.869Z,100.00
2023-02-19T06:15:37.701Z,100.00
2023-02-19T06:18:04.304Z,100.00
2023-02-19T06:20:30.739Z,100.00
2023-02-19T06:22:57.128Z,100.00
2023-02-19T06:25:23.890Z,100.00
2023-02-19T06:27:50.448Z,100.00
2023-02-19T06:30:17.300Z,100.00
2023-02-19T06:32:43.760Z,100.00
2023-02-19T06:35:10.173Z,100.00
2023-02-19T06:37:36.567Z,100.00
2023-02-19T06:40:03.994Z,100.00
2023-02-19T06:42:33.474Z,100.00
2023-02-19T06:44:59.955Z,100.00
2023-02-19T06:47:26.452Z,100.00
2023-02-19T06:49:53.286Z,100.00
2023-02-19T06:52:19.808Z,100.00
2023-02-19T06:54:46.220Z,100.00
2023-02-19T06:57:12.607Z,100.00
2023-02-19T06:59:39.028Z,100.00
2023-02-19T07:02:05.493Z,100.00
2023-02-19T07:04:32.144Z,100.00
2023-02-19T07:07:00.153Z,100.00
2023-02-19T07:09:28.490Z,100.00
2023-02-19T07:11:55.118Z,100.00
2023-02-19T07:14:21.634Z,100.00
2023-02-19T07:16:48.507Z,100.00
2023-02-19T07:19:15.752Z,100.00
2023-02-19T07:21:42.783Z,100.00
2023-02-19T07:24:10.156Z,100.00
2023-02-19T07:26:36.598Z,100.00
2023-02-19T07:29:03.049Z,100.00
2023-02-19T07:31:29.712Z,100.00
2023-02-19T07:33:56.421Z,100.00
2023-02-19T07:36:24.294Z,100.00
2023-02-19T07:38:58.335Z,100.00
2023-02-19T07:41:25.951Z,100.00
2023-02-19T07:43:55.616Z,100.00
2023-02-19T07:46:22.774Z,100.00
2023-02-19T07:48:49.409Z,100.00
2023-02-19T07:51:18.881Z,100.00
2023-02-19T07:53:46.696Z,100.00
2023-02-19T07:56:13.460Z,100.00
2023-02-19T07:58:40.317Z,100.00
2023-02-19T08:01:44.085Z,100.00
2023-02-19T08:04:12.118Z,100.00
2023-02-19T08:06:38.611Z,100.00
2023-02-19T08:09:05.533Z,100.00
2023-02-19T08:11:50.847Z,100.00
2023-02-19T08:14:17.304Z,100.00
2023-02-19T08:16:53.918Z,100.00
2023-02-19T08:19:21.086Z,100.00
2023-02-19T08:21:47.640Z,100.00
2023-02-19T08:24:14.065Z,100.00
2023-02-19T08:26:40.503Z,100.00
2023-02-19T08:29:07.020Z,100.00
2023-02-19T08:31:35.184Z,100.00
2023-02-19T08:34:02.616Z,100.00
2023-02-19T08:36:29.178Z,100.00
2023-02-19T08:38:55.679Z,100.00
2023-02-19T08:41:22.401Z,100.00
2023-02-19T08:43:49.246Z,100.00
2023-02-19T08:46:15.858Z,100.00
2023-02-19T08:48:42.370Z,100.00
2023-02-19T08:51:11.146Z,100.00
2023-02-19T08:53:39.202Z,100.00
2023-02-19T08:56:07.478Z,100.00
2023-02-19T08:58:33.992Z,100.00
2023-02-19T09:01:00.496Z,100.00
2023-02-19T09:03:27.405Z,100.00
2023-02-19T09:05:54.096Z,100.00
2023-02-19T09:08:20.586Z,100.00
2023-02-19T09:10:57.644Z,100.00
2023-02-19T09:13:24.215Z,99.50
2023-02-19T09:15:50.936Z,100.00
2023-02-19T09:18:17.565Z,98.88
2023-02-19T09:20:43.973Z,99.66
2023-02-19T09:23:10.380Z,99.17
2023-02-19T09:25:36.812Z,98.97
2023-02-19T09:28:03.474Z,99.52
2023-02-19T09:30:29.994Z,99.60
2023-02-19T09:32:56.465Z,98.62
2023-02-19T09:35:23.068Z,98.96
2023-02-19T09:37:49.548Z,97.48
2023-02-19T09:40:21.387Z,97.42
2023-02-19T09:42:51.116Z,97.36
2023-02-19T09:45:23.308Z,96.59
2023-02-19T09:47:54.364Z,97.61
2023-02-19T09:50:26.297Z,96.92
2023-02-19T09:52:59.556Z,96.96
2023-02-19T09:55:36.618Z,96.37
2023-02-19T09:58:16.541Z,97.66
2023-02-19T10:00:42.999Z,94.80
2023-02-19T10:03:20.632Z,94.98
2023-02-19T10:05:47.926Z,95.61
2023-02-19T10:08:19.215Z,95.04
2023-02-19T10:10:45.665Z,95.08
2023-02-19T10:13:34.880Z,96.80
2023-02-19T10:16:04.106Z,95.28
2023-02-19T10:18:41.381Z,95.29
2023-02-19T10:21:14.192Z,93.72
2023-02-19T10:23:41.352Z,93.45
2023-02-19T10:26:07.822Z,93.28
2023-02-19T10:28:35.804Z,93.14
2023-02-19T10:31:07.353Z,92.33
2023-02-19T10:33:33.780Z,93.49
2023-02-19T10:36:03.966Z,93.14
2023-02-19T10:38:36.820Z,93.27
2023-02-19T10:41:13.182Z,91.77
2023-02-19T10:43:44.172Z,92.56
2023-02-19T10:46:21.930Z,93.88
2023-02-19T10:49:01.334Z,94.25
2023-02-19T10:51:47.745Z,92.31
2023-02-19T10:54:40.791Z,90.73
2023-02-19T10:57:34.550Z,92.39
2023-02-19T11:00:18.760Z,91.59
2023-02-19T11:02:45.819Z,89.11
2023-02-19T11:05:14.400Z,87.94
2023-02-19T11:07:56.098Z,89.81
2023-02-19T11:10:33.499Z,90.20
2023-02-19T11:13:02.910Z,89.89
2023-02-19T11:15:31.176Z,87.93
2023-02-19T11:18:01.802Z,87.85
2023-02-19T11:20:55.425Z,84.38
2023-02-19T11:23:34.303Z,84.49
2023-02-19T11:26:03.992Z,86.65
2023-02-19T11:28:39.933Z,84.94
2023-02-19T11:31:20.526Z,84.55
2023-02-19T11:34:04.022Z,85.15
2023-02-19T11:36:34.381Z,85.69
2023-02-19T11:39:30.571Z,85.15
2023-02-19T11:42:20.945Z,85.04
2023-02-19T11:45:15.057Z,83.56
2023-02-19T11:48:04.900Z,83.44
2023-02-19T11:50:46.445Z,81.47
2023-02-19T11:53:24.531Z,79.45
2023-02-19T11:56:12.399Z,79.53
2023-02-19T11:59:02.603Z,80.76
2023-02-19T12:01:35.437Z,80.91
2023-02-19T12:04:12.114Z,80.06
2023-02-19T12:07:16.497Z,79.64
2023-02-19T12:10:03.349Z,79.68
2023-02-19T12:12:52.270Z,75.69
2023-02-19T12:15:30.896Z,74.22
2023-02-19T12:18:39.571Z,75.29
2023-02-19T12:21:43.704Z,76.34
2023-02-19T12:24:35.959Z,76.10
2023-02-19T12:27:24.421Z,77.23
2023-02-19T12:30:18.217Z,76.54
2023-02-19T12:32:50.984Z,76.17
2023-02-19T12:35:40.105Z,75.65
2023-02-19T12:38:23.414Z,75.55
2023-02-19T12:41:10.413Z,75.65
2023-02-19T12:43:40.350Z,70.53
2023-02-19T12:46:15.476Z,72.10
2023-02-19T12:49:26.110Z,71.99
2023-02-19T12:51:59.281Z,70.92
2023-02-19T12:54:41.936Z,72.07
2023-02-19T12:57:23.732Z,70.71
2023-02-19T13:00:39.810Z,69.49
2023-02-19T13:03:33.335Z,67.73
2023-02-19T13:06:22.443Z,70.19
2023-02-19T13:09:06.722Z,69.27
2023-02-19T13:11:42.677Z,68.99
2023-02-19T13:14:17.173Z,70.14
2023-02-19T13:16:48.678Z,67.74
2023-02-19T13:19:15.277Z,66.89
2023-02-19T13:22:02.932Z,66.53
2023-02-19T13:24:41.608Z,67.10
2023-02-19T13:27:30.973Z,66.21
2023-02-19T13:30:15.409Z,65.91
2023-02-19T13:33:03.030Z,64.61
2023-02-19T13:36:14.555Z,65.45
2023-02-19T13:38:44.806Z,64.18
2023-02-19T13:41:28.020Z,63.18
2023-02-19T13:44:08.267Z,64.01
2023-02-19T13:46:41.729Z,63.74
2023-02-19T13:49:34.320Z,64.73
2023-02-19T13:52:02.950Z,64.92
2023-02-19T13:54:37.012Z,64.08
2023-02-19T13:57:22.791Z,63.91
2023-02-19T13:59:51.190Z,63.09
2023-02-19T14:02:20.644Z,63.73
2023-02-19T14:04:54.661Z,62.43
2023-02-19T14:07:34.737Z,63.74
2023-02-19T14:10:01.969Z,63.81
2023-02-19T14:12:36.479Z,63.65
2023-02-19T14:15:44.139Z,63.46
2023-02-19T14:18:45.558Z,64.62
2023-02-19T14:21:22.521Z,65.15
2023-02-19T14:23:56.724Z,64.70
2023-02-19T14:26:25.833Z,64.88
2023-02-19T14:28:53.914Z,65.96
2023-02-19T14:31:29.208Z,66.22
2023-02-19T14:34:04.811Z,67.36
2023-02-19T14:36:33.769Z,68.11
2023-02-19T14:39:04.901Z,67.27
2023-02-19T14:41:34.137Z,66.82
2023-02-19T14:44:02.134Z,67.16
2023-02-19T14:46:37.374Z,66.10
2023-02-19T14:49:33.068Z,65.13
2023-02-19T14:52:12.271Z,64.18
2023-02-19T14:55:01.322Z,64.84
2023-02-19T14:57:38.159Z,65.46
2023-02-19T15:00:23.187Z,66.27
2023-02-19T15:02:52.624Z,67.12
2023-02-19T15:05:25.009Z,67.90
2023-02-19T15:07:54.913Z,67.78
2023-02-19T15:10:21.788Z,67.65
2023-02-19T15:12:55.756Z,67.27
2023-02-19T15:15:27.107Z,66.73
2023-02-19T15:17:55.635Z,66.19
2023-02-19T15:20:27.827Z,65.96
2023-02-19T15:22:56.300Z,66.53
2023-02-19T15:25:29.300Z,67.08
2023-02-19T15:27:55.923Z,67.54
2023-02-19T15:30:31.942Z,67.75
2023-02-19T15:33:00.129Z,67.29
2023-02-19T15:35:33.826Z,68.06
2023-02-19T15:38:00.802Z,68.25
2023-02-19T15:40:31.272Z,68.43
2023-02-19T15:43:00.181Z,68.99
2023-02-19T15:45:39.356Z,69.73
2023-02-19T15:48:15.047Z,69.96
2023-02-19T15:50:49.001Z,69.93
2023-02-19T15:53:31.585Z,69.28
2023-02-19T15:56:04.181Z,70.13
2023-02-19T15:58:42.627Z,70.32
2023-02-19T16:01:37.686Z,71.11
2023-02-19T16:04:11.327Z,71.05
2023-02-19T16:06:52.332Z,70.47
2023-02-19T16:09:28.832Z,71.36
2023-02-19T16:11:57.869Z,70.71
2023-02-19T16:14:37.698Z,71.77
2023-02-19T16:17:16.446Z,72.28
2023-02-19T16:19:43.668Z,72.46
2023-02-19T16:22:12.543Z,73.21
2023-02-19T16:24:45.274Z,73.98
2023-02-19T16:27:33.314Z,75.06
2023-02-19T16:30:07.640Z,75.51
2023-02-19T16:32:34.167Z,75.62
2023-02-19T16:35:02.521Z,76.06
2023-02-19T16:37:40.820Z,76.32
2023-02-19T16:40:07.441Z,76.49
2023-02-19T16:42:36.100Z,76.47
2023-02-19T16:45:02.557Z,76.67
2023-02-19T16:47:32.013Z,77.86
2023-02-19T16:50:01.255Z,78.88
2023-02-19T16:52:28.601Z,79.52
2023-02-19T16:54:55.201Z,79.92
2023-02-19T16:57:21.725Z,80.51
2023-02-19T16:59:48.437Z,80.97
2023-02-19T17:02:19.337Z,81.63
2023-02-19T17:04:47.451Z,82.29
2023-02-19T17:07:18.541Z,81.99
2023-02-19T17:09:45.292Z,83.21
2023-02-19T17:12:13.422Z,83.32
2023-02-19T17:14:39.897Z,83.60
2023-02-19T17:17:06.394Z,83.95
2023-02-19T17:19:32.811Z,83.94
2023-02-19T17:21:59.279Z,84.59
2023-02-19T17:24:25.857Z,84.27
2023-02-19T17:26:52.361Z,84.15
2023-02-19T17:29:19.857Z,83.63
2023-02-19T17:31:46.370Z,84.08
2023-02-19T17:34:12.826Z,84.31
2023-02-19T17:36:40.349Z,85.15
2023-02-19T17:39:15.332Z,85.58
2023-02-19T17:41:42.320Z,86.16
2023-02-19T17:44:09.025Z,86.17
2023-02-19T17:46:35.828Z,86.08
2023-02-19T17:49:02.354Z,86.23
2023-02-19T17:51:28.865Z,86.54
2023-02-19T17:53:55.449Z,86.41
2023-02-19T17:56:25.726Z,86.13
2023-02-19T17:58:53.493Z,86.89
2023-02-19T18:01:20.547Z,86.31
2023-02-19T18:03:47.143Z,87.11
2023-02-19T18:06:14.384Z,87.33
2023-02-19T18:08:47.002Z,87.66
2023-02-19T18:11:13.615Z,87.73
2023-02-19T18:13:40.297Z,88.59
2023-02-19T18:16:07.027Z,88.73
2023-02-19T18:18:33.438Z,88.88
2023-02-19T18:21:00.173Z,89.35
2023-02-19T18:23:27.523Z,89.59
2023-02-19T18:25:54.055Z,89.77
2023-02-19T18:28:20.483Z,90.46
2023-02-19T18:30:47.028Z,90.36
2023-02-19T18:33:13.607Z,90.27
2023-02-19T18:35:40.136Z,90.02
2023-02-19T18:38:06.544Z,90.15
2023-02-19T18:40:33.032Z,90.15
2023-02-19T18:42:59.665Z,90.52
2023-02-19T18:45:27.593Z,90.31
2023-02-19T18:47:54.144Z,90.68
2023-02-19T18:50:20.589Z,90.65
2023-02-19T18:52:47.667Z,90.32
2023-02-19T18:55:14.262Z,90.51
2023-02-19T18:57:40.778Z,90.69
2023-02-19T19:00:08.326Z,90.17
2023-02-19T19:02:48.246Z,89.64
2023-02-19T19:05:18.574Z,89.43
2023-02-19T19:07:45.018Z,89.28
2023-02-19T19:10:11.540Z,89.42
2023-02-19T19:12:37.945Z,89.96
2023-02-19T19:15:04.965Z,90.21
2023-02-19T19:17:31.385Z,89.80
2023-02-19T19:19:57.844Z,90.28
2023-02-19T19:22:25.094Z,89.42
2023-02-19T19:24:51.489Z,89.90
2023-02-19T19:27:20.248Z,89.96
2023-02-19T19:29:47.876Z,89.43
2023-02-19T19:32:14.558Z,89.91
2023-02-19T19:34:42.680Z,90.22
2023-02-19T19:37:09.854Z,90.52
2023-02-19T19:39:36.925Z,90.69
2023-02-19T19:42:03.927Z,90.81
2023-02-19T19:44:30.350Z,90.71
2023-02-19T19:46:56.859Z,90.50
2023-02-19T19:49:24.082Z,90.61
2023-02-19T19:51:50.624Z,90.79
2023-02-19T19:54:17.071Z,90.95
2023-02-19T19:56:45.866Z,91.26
2023-02-19T19:59:14.979Z,90.99
2023-02-19T20:01:52.883Z,90.97
2023-02-19T20:04:21.556Z,91.12
2023-02-19T20:06:48.555Z,91.54
2023-02-19T20:09:16.096Z,91.98
2023-02-19T20:11:52.903Z,91.55
2023-02-19T20:14:21.348Z,91.61
2023-02-19T20:16:48.248Z,91.14
2023-02-19T20:19:15.539Z,91.64
2023-02-19T20:21:50.440Z,91.48
2023-02-19T20:24:19.209Z,91.51
2023-02-19T20:26:45.733Z,91.70
2023-02-19T20:29:12.691Z,92.14
2023-02-19T20:31:39.913Z,92.21
2023-02-19T20:34:06.433Z,92.39
2023-02-19T20:36:32.935Z,92.22
2023-02-19T20:38:59.393Z,92.54
2023-02-19T20:41:26.347Z,92.84
2023-02-19T20:43:52.924Z,93.25
2023-02-19T20:46:19.443Z,92.92
2023-02-19T20:48:46.145Z,92.92
2023-02-19T20:51:12.644Z,93.28
2023-02-19T20:53:40.637Z,93.93
2023-02-19T20:56:07.184Z,93.81
2023-02-19T20:58:33.667Z,93.76
2023-02-19T21:01:00.980Z,93.91
2023-02-19T21:03:27.585Z,93.14
2023-02-19T21:05:54.142Z,93.49
2023-02-19T21:08:20.603Z,92.72
2023-02-19T21:10:47.064Z,93.59
2023-02-19T21:13:13.896Z,94.17
2023-02-19T21:15:40.658Z,94.39
2023-02-19T21:18:07.178Z,94.29
2023-02-19T21:20:34.753Z,94.04
2023-02-19T21:23:04.431Z,94.22
2023-02-19T21:25:33.020Z,94.35
2023-02-19T21:27:59.478Z,94.06
2023-02-19T21:30:26.135Z,94.14
2023-02-19T21:32:52.890Z,94.53
2023-02-19T21:35:19.356Z,94.25
2023-02-19T21:37:45.757Z,93.65
2023-02-19T21:40:12.876Z,94.27
2023-02-19T21:42:39.370Z,93.66
2023-02-19T21:45:06.290Z,93.53
2023-02-19T21:47:32.729Z,93.88
2023-02-19T21:49:59.399Z,93.36
2023-02-19T21:52:26.908Z,93.05
2023-02-19T21:54:53.949Z,93.32
2023-02-19T21:57:20.411Z,93.13
2023-02-19T21:59:46.823Z,92.86
2023-02-19T22:02:13.449Z,93.17
2023-02-19T22:04:39.893Z,93.46
2023-02-19T22:07:06.342Z,93.46
2023-02-19T22:09:32.751Z,94.18
2023-02-19T22:11:59.279Z,94.11
2023-02-19T22:14:25.943Z,93.94
2023-02-19T22:16:52.887Z,95.12
2023-02-19T22:19:19.341Z,96.01
2023-02-19T22:21:45.813Z,95.74
2023-02-19T22:24:21.345Z,96.19
2023-02-19T22:26:50.553Z,96.17
2023-02-19T22:29:17.641Z,96.42
2023-02-19T22:31:44.486Z,96.90
2023-02-19T22:34:11.910Z,96.88
2023-02-19T22:36:38.920Z,97.61
2023-02-19T22:39:07.662Z,96.86
2023-02-19T22:41:34.759Z,97.10
2023-02-19T22:44:01.619Z,97.17
2023-02-19T22:46:30.409Z,97.44
2023-02-19T22:48:57.774Z,97.66
2023-02-19T22:51:25.280Z,97.58
2023-02-19T22:53:57.339Z,98.20
2023-02-19T22:56:26.248Z,98.18
2023-02-19T22:58:54.017Z,98.58
2023-02-19T23:01:21.171Z,98.25
2023-02-19T23:03:48.839Z,99.35
2023-02-19T23:06:17.151Z,99.04
2023-02-19T23:08:44.114Z,99.41
2023-02-19T23:11:11.960Z,99.04
2023-02-19T23:13:42.533Z,99.37
2023-02-19T23:16:09.170Z,99.42
2023-02-19T23:18:35.825Z,99.32
2023-02-19T23:21:03.675Z,99.28
2023-02-19T23:23:30.217Z,98.88
2023-02-19T23:25:56.686Z,98.65
2023-02-19T23:28:23.363Z,99.87
2023-02-19T23:30:50.576Z,99.95
2023-02-19T23:33:17.336Z,99.57
2023-02-19T23:35:43.821Z,100.00
2023-02-19T23:38:10.971Z,100.00
2023-02-19T23:40:37.469Z,99.36
2023-02-19T23:43:04.141Z,98.77
2023-02-19T23:45:31.160Z,98.68
2023-02-19T23:47:57.969Z,98.71
2023-02-19T23:50:24.423Z,98.62
2023-02-19T23:52:50.876Z,98.00
2023-02-19T23:55:17.498Z,98.26
2023-02-19T23:57:43.918Z,97.42
